createdAt,value
2019-05-19T00:04:28.897Z,9.67
2019-05-19T00:09:31.613Z,9.13
2019-05-19T00:14:34.347Z,8.70
2019-05-19T00:19:37.048Z,8.70
2019-05-19T00:24:39.734Z,8.17
2019-05-19T00:29:42.458Z,8.67
2019-05-19T00:34:45.260Z,8.40
2019-05-19T00:39:47.975Z,8.80
2019-05-19T00:44:50.717Z,9.07
2019-05-19T00:49:55.166Z,9.10
2019-05-19T00:54:57.936Z,8.43
2019-05-19T01:00:01.306Z,8.10
2019-05-19T01:05:04.391Z,8.80
2019-05-19T01:10:09.211Z,9.30
2019-05-19T01:15:12.210Z,9.93
2019-05-19T01:20:15.514Z,8.60
2019-05-19T01:25:18.215Z,10.70
2019-05-19T01:30:21.102Z,8.97
2019-05-19T01:35:23.816Z,9.27
2019-05-19T01:40:26.487Z,8.73
2019-05-19T01:45:29.205Z,10.50
2019-05-19T01:50:31.923Z,8.70
2019-05-19T01:55:34.624Z,9.10
2019-05-19T02:00:37.412Z,8.80
2019-05-19T02:05:40.113Z,9.30
2019-05-19T02:10:42.799Z,9.23
2019-05-19T02:15:45.513Z,10.20
2019-05-19T02:20:48.229Z,9.27
2019-05-19T02:25:50.917Z,9.30
2019-05-19T02:30:53.776Z,10.53
2019-05-19T02:35:56.493Z,8.73
2019-05-19T02:41:02.335Z,10.20
2019-05-19T02:46:05.845Z,9.53
2019-05-19T02:51:10.595Z,10.50
2019-05-19T02:56:13.788Z,8.67
2019-05-19T03:01:16.483Z,9.70
2019-05-19T03:06:19.194Z,9.50
2019-05-19T03:11:21.940Z,8.67
2019-05-19T03:16:24.644Z,8.43
2019-05-19T03:21:27.352Z,8.67
2019-05-19T03:26:30.072Z,9.40
2019-05-19T03:31:40.261Z,9.53
2019-05-19T03:36:42.957Z,9.07
2019-05-19T03:41:45.701Z,9.40
2019-05-19T03:46:48.421Z,9.10
2019-05-19T03:51:51.158Z,9.23
2019-05-19T03:56:53.857Z,9.57
2019-05-19T04:01:56.551Z,9.20
2019-05-19T04:06:59.264Z,8.77
2019-05-19T04:12:02.002Z,9.80
2019-05-19T04:17:04.698Z,9.83
2019-05-19T04:22:07.380Z,10.03
2019-05-19T04:27:10.098Z,9.57
2019-05-19T04:32:12.808Z,9.77
2019-05-19T04:37:15.746Z,9.50
2019-05-19T04:42:18.455Z,10.43
2019-05-19T04:47:21.197Z,9.40
2019-05-19T04:52:24.872Z,10.27
2019-05-19T04:57:28.931Z,10.00
2019-05-19T05:02:32.144Z,9.90
2019-05-19T05:07:34.835Z,9.33
2019-05-19T05:12:37.538Z,10.30
2019-05-19T05:17:40.241Z,9.97
2019-05-19T05:22:42.961Z,9.43
2019-05-19T05:27:45.661Z,11.40
2019-05-19T05:32:48.368Z,12.87
2019-05-19T05:37:51.069Z,12.90
2019-05-19T05:42:54.117Z,13.33
2019-05-19T05:47:56.899Z,13.17
2019-05-19T05:52:59.605Z,12.60
2019-05-19T05:58:02.363Z,13.70
2019-05-19T06:03:05.244Z,13.67
2019-05-19T06:08:07.973Z,14.20
2019-05-19T06:13:12.539Z,15.63
2019-05-19T06:18:15.244Z,15.90
2019-05-19T06:23:17.968Z,16.77
2019-05-19T06:28:20.688Z,15.67
2019-05-19T06:33:23.425Z,16.40
2019-05-19T06:38:26.230Z,16.57
2019-05-19T06:43:29.070Z,15.17
2019-05-19T06:48:31.811Z,14.30
2019-05-19T06:53:34.796Z,13.50
2019-05-19T06:58:37.614Z,12.40
2019-05-19T07:03:40.408Z,10.87
2019-05-19T07:08:43.115Z,10.53
2019-05-19T07:13:45.951Z,9.03
2019-05-19T07:18:48.671Z,9.13
2019-05-19T07:23:51.385Z,8.03
2019-05-19T07:28:54.147Z,8.13
2019-05-19T07:33:56.859Z,7.70
2019-05-19T07:38:59.734Z,7.70
2019-05-19T07:44:02.494Z,7.53
2019-05-19T07:49:05.207Z,7.20
2019-05-19T07:54:09.675Z,5.93
2019-05-19T07:59:12.427Z,6.40
2019-05-19T08:04:15.130Z,7.00
2019-05-19T08:09:17.840Z,7.77
2019-05-19T08:14:20.571Z,7.10
2019-05-19T08:19:23.305Z,6.53
2019-05-19T08:24:26.354Z,7.20
2019-05-19T08:29:29.177Z,7.40
2019-05-19T08:34:31.899Z,7.07
2019-05-19T08:39:34.675Z,7.00
2019-05-19T08:44:39.285Z,7.87
2019-05-19T08:49:41.994Z,7.97
2019-05-19T08:54:44.705Z,8.00
2019-05-19T08:59:47.512Z,9.43
2019-05-19T09:04:50.262Z,10.60
2019-05-19T09:09:53.082Z,10.80
2019-05-19T09:14:56.028Z,10.90
2019-05-19T09:19:58.718Z,10.67
2019-05-19T09:25:01.589Z,11.57
2019-05-19T09:30:05.840Z,9.93
2019-05-19T09:35:08.757Z,11.70
2019-05-19T09:40:11.682Z,9.70
2019-05-19T09:45:14.719Z,10.00
2019-05-19T09:50:17.839Z,9.37
2019-05-19T09:55:20.574Z,9.33
2019-05-19T10:00:23.481Z,10.40
2019-05-19T10:05:26.201Z,10.03
2019-05-19T10:10:39.300Z,9.30
2019-05-19T10:15:42.166Z,9.70
2019-05-19T10:20:45.037Z,7.87
2019-05-19T10:25:47.796Z,9.20
2019-05-19T10:30:50.515Z,8.80
2019-05-19T10:35:53.220Z,9.23
2019-05-19T10:40:56.033Z,9.57
2019-05-19T10:45:59.296Z,8.50
2019-05-19T10:51:05.688Z,10.20
2019-05-19T10:56:10.540Z,7.97
2019-05-19T11:01:13.760Z,7.50
2019-05-19T11:06:16.784Z,7.20
2019-05-19T11:11:20.437Z,7.80
2019-05-19T11:16:23.861Z,6.80
2019-05-19T11:21:27.406Z,6.30
2019-05-19T11:26:31.365Z,7.40
2019-05-19T11:31:34.749Z,6.83
2019-05-19T11:36:37.449Z,8.37
2019-05-19T11:41:40.158Z,8.47
2019-05-19T11:46:42.903Z,9.70
2019-05-19T11:51:45.626Z,10.13
2019-05-19T11:56:48.348Z,9.67
2019-05-19T12:01:53.381Z,8.33
2019-05-19T12:06:56.284Z,8.50
2019-05-19T12:11:59.025Z,7.60
2019-05-19T12:17:01.785Z,7.80
2019-05-19T12:22:04.508Z,8.20
2019-05-19T12:27:07.245Z,8.00
2019-05-19T12:32:09.974Z,7.90
2019-05-19T12:37:12.679Z,7.50
2019-05-19T12:42:15.362Z,8.47
2019-05-19T12:47:18.098Z,6.80
2019-05-19T12:52:20.864Z,7.00
2019-05-19T12:57:23.605Z,7.17
2019-05-19T13:02:26.323Z,6.50
2019-05-19T13:07:29.058Z,6.80
2019-05-19T13:12:31.772Z,7.97
2019-05-19T13:17:34.500Z,8.03
2019-05-19T13:22:37.206Z,7.30
2019-05-19T13:27:39.950Z,7.60
2019-05-19T13:32:42.650Z,7.03
2019-05-19T13:37:45.386Z,7.70
2019-05-19T13:42:48.101Z,7.67
2019-05-19T13:47:51.151Z,7.60
2019-05-19T13:52:53.906Z,6.77
2019-05-19T13:57:56.607Z,7.53
2019-05-19T14:02:59.351Z,7.00
2019-05-19T14:08:02.068Z,5.67
2019-05-19T14:13:04.809Z,6.00
2019-05-19T14:18:07.553Z,7.00
2019-05-19T14:23:10.274Z,6.57
2019-05-19T14:28:13.049Z,6.40
2019-05-19T14:33:15.791Z,7.30
2019-05-19T14:38:18.520Z,6.10
2019-05-19T14:43:21.639Z,6.20
2019-05-19T14:48:24.398Z,6.27
2019-05-19T14:53:27.174Z,7.13
2019-05-19T14:58:29.929Z,6.20
2019-05-19T15:03:33.615Z,5.87
2019-05-19T15:08:36.386Z,5.73
2019-05-19T15:13:39.354Z,5.47
2019-05-19T15:18:42.082Z,6.63
2019-05-19T15:23:44.869Z,6.60
2019-05-19T15:28:47.608Z,6.07
2019-05-19T15:33:51.079Z,5.30
2019-05-19T15:38:53.793Z,6.27
2019-05-19T15:43:56.560Z,7.63
2019-05-19T15:48:59.302Z,5.63
2019-05-19T15:54:02.071Z,6.27
2019-05-19T15:59:04.787Z,6.03
2019-05-19T16:04:07.501Z,6.43
2019-05-19T16:09:10.228Z,6.23
2019-05-19T16:14:12.978Z,6.20
2019-05-19T16:19:15.713Z,6.10
2019-05-19T16:24:18.458Z,7.17
2019-05-19T16:29:21.224Z,6.70
2019-05-19T16:34:23.940Z,6.93
2019-05-19T16:39:26.709Z,6.27
2019-05-19T16:44:29.437Z,6.90
2019-05-19T16:49:32.170Z,6.50
2019-05-19T16:54:37.222Z,6.27
2019-05-19T16:59:39.919Z,7.27
2019-05-19T17:04:42.643Z,6.53
2019-05-19T17:09:45.340Z,6.63
2019-05-19T17:14:49.226Z,6.27
2019-05-19T17:19:52.101Z,5.77
2019-05-19T17:24:54.917Z,6.33
2019-05-19T17:29:58.820Z,8.73
2019-05-19T17:35:01.565Z,7.57
2019-05-19T17:40:04.971Z,6.10
2019-05-19T17:45:09.164Z,6.70
2019-05-19T17:50:14.222Z,6.40
2019-05-19T17:55:16.927Z,8.00
2019-05-19T18:00:38.711Z,8.63
2019-05-19T18:05:41.406Z,8.63
2019-05-19T18:10:44.115Z,8.27
2019-05-19T18:15:46.839Z,8.27
2019-05-19T18:20:49.685Z,8.30
2019-05-19T18:25:52.389Z,8.80
2019-05-19T18:30:55.224Z,10.13
2019-05-19T18:35:58.238Z,10.37
2019-05-19T18:41:01.056Z,12.10
2019-05-19T18:46:03.811Z,14.20
2019-05-19T18:51:06.502Z,10.43
2019-05-19T18:56:09.309Z,10.03
2019-05-19T19:01:12.037Z,10.33
2019-05-19T19:06:14.887Z,10.10
2019-05-19T19:11:17.593Z,10.67
2019-05-19T19:16:20.359Z,10.00
2019-05-19T19:21:23.093Z,10.93
2019-05-19T19:26:25.819Z,10.97
2019-05-19T19:31:28.523Z,11.13
2019-05-19T19:36:31.285Z,12.80
2019-05-19T19:41:34.388Z,12.53
2019-05-19T19:46:37.112Z,12.97
2019-05-19T19:51:39.807Z,11.50
2019-05-19T19:56:42.507Z,12.10
2019-05-19T20:01:45.368Z,10.60
2019-05-19T20:06:48.349Z,11.77
2019-05-19T20:11:51.090Z,11.03
2019-05-19T20:16:53.788Z,11.37
2019-05-19T20:21:56.588Z,11.93
2019-05-19T20:26:59.289Z,12.47
2019-05-19T20:32:02.015Z,11.50
2019-05-19T20:37:05.022Z,11.37
2019-05-19T20:42:07.823Z,11.60
2019-05-19T20:47:10.553Z,11.80
2019-05-19T20:52:13.262Z,12.90
2019-05-19T20:57:16.155Z,11.57
2019-05-19T21:02:18.893Z,11.97
2019-05-19T21:07:21.620Z,13.57
2019-05-19T21:12:24.594Z,12.63
2019-05-19T21:17:27.337Z,13.03
2019-05-19T21:22:30.147Z,13.80
2019-05-19T21:27:32.853Z,13.40
2019-05-19T21:32:35.607Z,14.30
2019-05-19T21:37:38.334Z,14.77
2019-05-19T21:42:41.055Z,14.03
2019-05-19T21:47:43.825Z,15.10
2019-05-19T21:52:46.535Z,13.90
2019-05-19T21:57:49.262Z,15.27
2019-05-19T22:02:51.972Z,15.17
2019-05-19T22:08:14.069Z,15.70
2019-05-19T22:13:16.812Z,14.33
2019-05-19T22:18:19.600Z,15.07
2019-05-19T22:23:22.289Z,15.30
2019-05-19T22:28:24.980Z,15.70
2019-05-19T22:33:27.678Z,13.53
2019-05-19T22:38:30.421Z,14.17
2019-05-19T22:43:33.102Z,13.63
2019-05-19T22:48:35.809Z,14.27
2019-05-19T22:53:38.488Z,14.37
2019-05-19T22:58:41.716Z,15.13
2019-05-19T23:03:44.481Z,15.93
2019-05-19T23:08:47.211Z,14.70
2019-05-19T23:13:49.943Z,15.07
2019-05-19T23:18:52.667Z,15.03
2019-05-19T23:23:55.384Z,15.00
2019-05-19T23:28:58.075Z,13.77
2019-05-19T23:34:00.795Z,15.27
2019-05-19T23:39:05.193Z,16.17
2019-05-19T23:44:08.162Z,17.53
2019-05-19T23:49:10.886Z,15.00
2019-05-19T23:54:13.602Z,14.80
2019-05-19T23:59:16.307Z,16.30
